sensor_id;sensor_type;location;lat;lon;timestamp;temperature;humidity
84276;DHT22;74432;51.212;3.254;2024-01-27T00:01:35;5.30;79.30
84276;DHT22;74432;51.212;3.254;2024-01-27T00:04:00;5.40;79.80
84276;DHT22;74432;51.212;3.254;2024-01-27T00:06:26;5.40;79.00
84276;DHT22;74432;51.212;3.254;2024-01-27T00:08:52;5.30;79.50
84276;DHT22;74432;51.212;3.254;2024-01-27T00:11:17;5.50;79.50
84276;DHT22;74432;51.212;3.254;2024-01-27T00:13:44;5.50;79.50
84276;DHT22;74432;51.212;3.254;2024-01-27T00:16:10;5.50;79.70
84276;DHT22;74432;51.212;3.254;2024-01-27T00:18:36;5.60;79.50
84276;DHT22;74432;51.212;3.254;2024-01-27T00:21:03;5.50;79.00
84276;DHT22;74432;51.212;3.254;2024-01-27T00:23:29;5.40;80.30
84276;DHT22;74432;51.212;3.254;2024-01-27T00:25:55;5.30;79.70
84276;DHT22;74432;51.212;3.254;2024-01-27T00:28:20;5.20;80.20
84276;DHT22;74432;51.212;3.254;2024-01-27T00:30:46;5.30;80.40
84276;DHT22;74432;51.212;3.254;2024-01-27T00:33:12;5.50;79.70
84276;DHT22;74432;51.212;3.254;2024-01-27T00:35:38;5.60;79.10
84276;DHT22;74432;51.212;3.254;2024-01-27T00:38:03;5.60;78.70
84276;DHT22;74432;51.212;3.254;2024-01-27T00:40:29;5.50;79.00
84276;DHT22;74432;51.212;3.254;2024-01-27T00:42:55;5.50;79.40
84276;DHT22;74432;51.212;3.254;2024-01-27T00:45:21;5.50;78.60
84276;DHT22;74432;51.212;3.254;2024-01-27T00:47:49;5.40;79.10
84276;DHT22;74432;51.212;3.254;2024-01-27T00:50:16;5.40;79.80
84276;DHT22;74432;51.212;3.254;2024-01-27T00:52:42;5.30;80.00
84276;DHT22;74432;51.212;3.254;2024-01-27T00:55:08;5.40;79.30
84276;DHT22;74432;51.212;3.254;2024-01-27T00:57:36;5.40;79.90
84276;DHT22;74432;51.212;3.254;2024-01-27T01:00:07;5.40;79.80
84276;DHT22;74432;51.212;3.254;2024-01-27T01:02:33;5.30;79.40
84276;DHT22;74432;51.212;3.254;2024-01-27T01:04:58;5.20;80.50
84276;DHT22;74432;51.212;3.254;2024-01-27T01:07:27;5.10;81.00
84276;DHT22;74432;51.212;3.254;2024-01-27T01:09:53;5.20;81.00
84276;DHT22;74432;51.212;3.254;2024-01-27T01:12:18;5.10;80.90
84276;DHT22;74432;51.212;3.254;2024-01-27T01:14:44;5.30;81.10
84276;DHT22;74432;51.212;3.254;2024-01-27T01:17:10;5.40;80.30
84276;DHT22;74432;51.212;3.254;2024-01-27T01:19:40;5.20;81.00
84276;DHT22;74432;51.212;3.254;2024-01-27T01:22:06;5.30;80.10
84276;DHT22;74432;51.212;3.254;2024-01-27T01:24:32;5.30;79.30
84276;DHT22;74432;51.212;3.254;2024-01-27T01:26:58;5.20;80.20
84276;DHT22;74432;51.212;3.254;2024-01-27T01:29:27;5.20;80.40
84276;DHT22;74432;51.212;3.254;2024-01-27T01:31:53;4.90;81.40
84276;DHT22;74432;51.212;3.254;2024-01-27T01:34:19;4.90;83.20
84276;DHT22;74432;51.212;3.254;2024-01-27T01:36:44;4.90;82.30
84276;DHT22;74432;51.212;3.254;2024-01-27T01:39:11;5.10;81.70
84276;DHT22;74432;51.212;3.254;2024-01-27T01:41:38;5.00;81.70
84276;DHT22;74432;51.212;3.254;2024-01-27T01:44:04;5.10;81.50
84276;DHT22;74432;51.212;3.254;2024-01-27T01:46:30;5.10;81.20
84276;DHT22;74432;51.212;3.254;2024-01-27T01:48:56;5.10;81.10
84276;DHT22;74432;51.212;3.254;2024-01-27T01:51:22;5.00;81.40
84276;DHT22;74432;51.212;3.254;2024-01-27T01:53:48;5.10;81.70
84276;DHT22;74432;51.212;3.254;2024-01-27T01:56:17;5.00;81.10
84276;DHT22;74432;51.212;3.254;2024-01-27T01:58:43;5.20;81.20
84276;DHT22;74432;51.212;3.254;2024-01-27T02:01:09;5.30;80.30
84276;DHT22;74432;51.212;3.254;2024-01-27T02:03:34;5.20;80.50
84276;DHT22;74432;51.212;3.254;2024-01-27T02:06:00;5.40;80.20
84276;DHT22;74432;51.212;3.254;2024-01-27T02:08:26;5.40;79.40
84276;DHT22;74432;51.212;3.254;2024-01-27T02:10:51;5.30;79.40
84276;DHT22;74432;51.212;3.254;2024-01-27T02:15:47;5.30;79.30
84276;DHT22;74432;51.212;3.254;2024-01-27T02:18:13;5.30;79.30
84276;DHT22;74432;51.212;3.254;2024-01-27T02:20:39;5.30;79.70
84276;DHT22;74432;51.212;3.254;2024-01-27T02:23:05;5.30;79.30
84276;DHT22;74432;51.212;3.254;2024-01-27T02:25:32;5.20;79.30
84276;DHT22;74432;51.212;3.254;2024-01-27T02:27:58;5.30;79.30
84276;DHT22;74432;51.212;3.254;2024-01-27T02:30:24;5.30;78.90
84276;DHT22;74432;51.212;3.254;2024-01-27T02:32:50;5.30;79.10
84276;DHT22;74432;51.212;3.254;2024-01-27T02:35:16;5.20;79.30
84276;DHT22;74432;51.212;3.254;2024-01-27T02:37:42;5.30;80.20
84276;DHT22;74432;51.212;3.254;2024-01-27T02:40:08;5.30;78.30
84276;DHT22;74432;51.212;3.254;2024-01-27T02:42:35;5.20;78.50
84276;DHT22;74432;51.212;3.254;2024-01-27T02:45:01;5.20;78.70
84276;DHT22;74432;51.212;3.254;2024-01-27T02:47:27;5.20;78.80
84276;DHT22;74432;51.212;3.254;2024-01-27T02:49:53;5.10;79.20
84276;DHT22;74432;51.212;3.254;2024-01-27T02:52:19;5.10;79.10
84276;DHT22;74432;51.212;3.254;2024-01-27T02:54:45;5.10;78.50
84276;DHT22;74432;51.212;3.254;2024-01-27T02:57:11;5.00;77.90
84276;DHT22;74432;51.212;3.254;2024-01-27T02:59:37;4.90;79.30
84276;DHT22;74432;51.212;3.254;2024-01-27T03:02:05;4.90;79.40
84276;DHT22;74432;51.212;3.254;2024-01-27T03:04:30;4.90;79.40
84276;DHT22;74432;51.212;3.254;2024-01-27T03:06:56;4.80;80.50
84276;DHT22;74432;51.212;3.254;2024-01-27T03:09:22;4.70;80.40
84276;DHT22;74432;51.212;3.254;2024-01-27T03:11:47;4.70;80.10
84276;DHT22;74432;51.212;3.254;2024-01-27T03:14:13;4.80;79.70
84276;DHT22;74432;51.212;3.254;2024-01-27T03:16:39;4.90;79.80
84276;DHT22;74432;51.212;3.254;2024-01-27T03:19:05;4.90;79.80
84276;DHT22;74432;51.212;3.254;2024-01-27T03:21:32;4.70;80.10
84276;DHT22;74432;51.212;3.254;2024-01-27T03:23:58;4.70;80.90
84276;DHT22;74432;51.212;3.254;2024-01-27T03:26:23;4.80;81.00
84276;DHT22;74432;51.212;3.254;2024-01-27T03:28:49;4.90;80.50
84276;DHT22;74432;51.212;3.254;2024-01-27T03:31:14;4.80;80.40
84276;DHT22;74432;51.212;3.254;2024-01-27T03:33:40;4.70;81.00
84276;DHT22;74432;51.212;3.254;2024-01-27T03:36:10;4.70;81.70
84276;DHT22;74432;51.212;3.254;2024-01-27T03:38:37;4.70;81.40
84276;DHT22;74432;51.212;3.254;2024-01-27T03:41:03;4.70;81.20
84276;DHT22;74432;51.212;3.254;2024-01-27T03:43:29;4.80;81.00
84276;DHT22;74432;51.212;3.254;2024-01-27T03:45:56;4.80;80.80
84276;DHT22;74432;51.212;3.254;2024-01-27T03:48:22;4.70;81.00
84276;DHT22;74432;51.212;3.254;2024-01-27T03:50:48;4.60;80.80
84276;DHT22;74432;51.212;3.254;2024-01-27T03:53:13;4.60;81.60
84276;DHT22;74432;51.212;3.254;2024-01-27T03:55:39;4.60;81.40
84276;DHT22;74432;51.212;3.254;2024-01-27T03:58:05;4.70;81.30
84276;DHT22;74432;51.212;3.254;2024-01-27T04:00:31;4.70;81.10
84276;DHT22;74432;51.212;3.254;2024-01-27T04:02:59;4.70;81.10
84276;DHT22;74432;51.212;3.254;2024-01-27T04:05:25;4.60;81.10
84276;DHT22;74432;51.212;3.254;2024-01-27T04:07:51;4.70;81.20
84276;DHT22;74432;51.212;3.254;2024-01-27T04:10:17;4.70;81.00
84276;DHT22;74432;51.212;3.254;2024-01-27T04:12:43;4.70;80.70
84276;DHT22;74432;51.212;3.254;2024-01-27T04:15:10;4.70;81.00
84276;DHT22;74432;51.212;3.254;2024-01-27T04:17:37;4.70;81.00
84276;DHT22;74432;51.212;3.254;2024-01-27T04:20:03;4.70;80.70
84276;DHT22;74432;51.212;3.254;2024-01-27T04:22:30;4.80;80.50
84276;DHT22;74432;51.212;3.254;2024-01-27T04:24:56;4.70;79.90
84276;DHT22;74432;51.212;3.254;2024-01-27T04:27:21;4.80;81.00
84276;DHT22;74432;51.212;3.254;2024-01-27T04:29:47;4.70;79.80
84276;DHT22;74432;51.212;3.254;2024-01-27T04:32:13;4.60;79.80
84276;DHT22;74432;51.212;3.254;2024-01-27T04:34:39;4.40;80.40
84276;DHT22;74432;51.212;3.254;2024-01-27T04:37:05;4.50;80.90
84276;DHT22;74432;51.212;3.254;2024-01-27T04:39:31;4.40;81.00
84276;DHT22;74432;51.212;3.254;2024-01-27T04:41:57;4.50;81.00
84276;DHT22;74432;51.212;3.254;2024-01-27T04:44:22;4.40;80.70
84276;DHT22;74432;51.212;3.254;2024-01-27T04:46:48;4.30;80.90
84276;DHT22;74432;51.212;3.254;2024-01-27T04:49:15;4.20;81.00
84276;DHT22;74432;51.212;3.254;2024-01-27T04:51:40;4.10;82.10
84276;DHT22;74432;51.212;3.254;2024-01-27T04:54:08;4.10;82.40
84276;DHT22;74432;51.212;3.254;2024-01-27T04:56:33;4.30;82.30
84276;DHT22;74432;51.212;3.254;2024-01-27T04:58:59;4.40;81.60
84276;DHT22;74432;51.212;3.254;2024-01-27T05:01:25;4.40;81.50
84276;DHT22;74432;51.212;3.254;2024-01-27T05:03:50;4.40;81.40
84276;DHT22;74432;51.212;3.254;2024-01-27T05:06:16;4.40;81.00
84276;DHT22;74432;51.212;3.254;2024-01-27T05:08:42;4.40;82.30
84276;DHT22;74432;51.212;3.254;2024-01-27T05:11:09;4.30;81.20
84276;DHT22;74432;51.212;3.254;2024-01-27T05:13:34;4.20;82.00
84276;DHT22;74432;51.212;3.254;2024-01-27T05:16:00;4.30;82.00
84276;DHT22;74432;51.212;3.254;2024-01-27T05:18:26;4.20;81.50
84276;DHT22;74432;51.212;3.254;2024-01-27T05:20:51;4.20;81.70
84276;DHT22;74432;51.212;3.254;2024-01-27T05:23:17;4.10;81.70
84276;DHT22;74432;51.212;3.254;2024-01-27T05:25:43;4.20;82.20
84276;DHT22;74432;51.212;3.254;2024-01-27T05:28:08;4.30;82.00
84276;DHT22;74432;51.212;3.254;2024-01-27T05:30:34;4.20;81.60
84276;DHT22;74432;51.212;3.254;2024-01-27T05:33:00;4.30;81.40
84276;DHT22;74432;51.212;3.254;2024-01-27T05:35:25;4.20;81.10
84276;DHT22;74432;51.212;3.254;2024-01-27T05:37:51;4.20;81.10
84276;DHT22;74432;51.212;3.254;2024-01-27T05:40:17;4.20;81.30
84276;DHT22;74432;51.212;3.254;2024-01-27T05:42:42;4.10;81.50
84276;DHT22;74432;51.212;3.254;2024-01-27T05:45:10;4.20;82.00
84276;DHT22;74432;51.212;3.254;2024-01-27T05:47:36;4.20;82.40
84276;DHT22;74432;51.212;3.254;2024-01-27T05:50:02;4.30;81.90
84276;DHT22;74432;51.212;3.254;2024-01-27T05:52:28;4.30;81.30
84276;DHT22;74432;51.212;3.254;2024-01-27T05:54:54;4.20;82.10
84276;DHT22;74432;51.212;3.254;2024-01-27T05:57:20;4.30;81.50
84276;DHT22;74432;51.212;3.254;2024-01-27T05:59:46;4.30;81.30
84276;DHT22;74432;51.212;3.254;2024-01-27T06:02:11;4.40;81.40
84276;DHT22;74432;51.212;3.254;2024-01-27T06:04:37;4.40;81.00
84276;DHT22;74432;51.212;3.254;2024-01-27T06:07:03;4.30;80.80
84276;DHT22;74432;51.212;3.254;2024-01-27T06:09:29;4.00;81.80
84276;DHT22;74432;51.212;3.254;2024-01-27T06:11:54;4.00;82.10
84276;DHT22;74432;51.212;3.254;2024-01-27T06:14:20;3.80;83.60
84276;DHT22;74432;51.212;3.254;2024-01-27T06:16:46;3.90;83.90
84276;DHT22;74432;51.212;3.254;2024-01-27T06:19:11;4.10;83.10
84276;DHT22;74432;51.212;3.254;2024-01-27T06:21:37;4.20;82.50
84276;DHT22;74432;51.212;3.254;2024-01-27T06:24:03;4.10;82.10
84276;DHT22;74432;51.212;3.254;2024-01-27T06:26:28;4.10;81.90
84276;DHT22;74432;51.212;3.254;2024-01-27T06:28:54;4.10;82.10
84276;DHT22;74432;51.212;3.254;2024-01-27T06:31:20;4.10;81.70
84276;DHT22;74432;51.212;3.254;2024-01-27T06:33:45;3.90;81.80
84276;DHT22;74432;51.212;3.254;2024-01-27T06:36:11;3.80;82.80
84276;DHT22;74432;51.212;3.254;2024-01-27T06:38:39;3.90;82.60
84276;DHT22;74432;51.212;3.254;2024-01-27T06:41:05;3.90;82.70
84276;DHT22;74432;51.212;3.254;2024-01-27T06:43:31;3.90;82.80
84276;DHT22;74432;51.212;3.254;2024-01-27T06:45:56;4.00;82.90
84276;DHT22;74432;51.212;3.254;2024-01-27T06:48:22;4.00;82.40
84276;DHT22;74432;51.212;3.254;2024-01-27T06:50:51;3.90;81.60
84276;DHT22;74432;51.212;3.254;2024-01-27T06:53:18;3.70;82.80
84276;DHT22;74432;51.212;3.254;2024-01-27T06:55:44;3.70;82.80
84276;DHT22;74432;51.212;3.254;2024-01-27T06:58:10;3.70;82.60
84276;DHT22;74432;51.212;3.254;2024-01-27T07:00:35;3.70;83.10
84276;DHT22;74432;51.212;3.254;2024-01-27T07:03:01;3.70;83.70
84276;DHT22;74432;51.212;3.254;2024-01-27T07:05:28;3.80;83.70
84276;DHT22;74432;51.212;3.254;2024-01-27T07:07:53;3.90;83.00
84276;DHT22;74432;51.212;3.254;2024-01-27T07:10:19;3.80;82.70
84276;DHT22;74432;51.212;3.254;2024-01-27T07:12:45;3.80;82.70
84276;DHT22;74432;51.212;3.254;2024-01-27T07:15:11;3.60;83.10
84276;DHT22;74432;51.212;3.254;2024-01-27T07:17:37;3.60;82.70
84276;DHT22;74432;51.212;3.254;2024-01-27T07:20:02;3.50;83.00
84276;DHT22;74432;51.212;3.254;2024-01-27T07:22:28;3.40;84.10
84276;DHT22;74432;51.212;3.254;2024-01-27T07:24:54;3.30;85.00
84276;DHT22;74432;51.212;3.254;2024-01-27T07:27:22;3.30;84.90
84276;DHT22;74432;51.212;3.254;2024-01-27T07:29:49;3.20;85.70
84276;DHT22;74432;51.212;3.254;2024-01-27T07:32:14;3.20;86.30
84276;DHT22;74432;51.212;3.254;2024-01-27T07:34:43;3.30;86.20
84276;DHT22;74432;51.212;3.254;2024-01-27T07:37:09;3.40;86.00
84276;DHT22;74432;51.212;3.254;2024-01-27T07:39:35;3.40;85.40
84276;DHT22;74432;51.212;3.254;2024-01-27T07:42:01;3.30;85.80
84276;DHT22;74432;51.212;3.254;2024-01-27T07:44:27;3.40;86.00
84276;DHT22;74432;51.212;3.254;2024-01-27T07:46:53;3.30;86.70
84276;DHT22;74432;51.212;3.254;2024-01-27T07:49:19;3.30;86.60
84276;DHT22;74432;51.212;3.254;2024-01-27T07:51:44;3.50;87.00
84276;DHT22;74432;51.212;3.254;2024-01-27T07:54:10;3.70;86.20
84276;DHT22;74432;51.212;3.254;2024-01-27T07:56:37;3.70;85.30
84276;DHT22;74432;51.212;3.254;2024-01-27T07:59:03;3.70;85.30
84276;DHT22;74432;51.212;3.254;2024-01-27T08:01:29;3.80;84.80
84276;DHT22;74432;51.212;3.254;2024-01-27T08:03:54;3.90;84.40
84276;DHT22;74432;51.212;3.254;2024-01-27T08:06:28;3.80;84.20
84276;DHT22;74432;51.212;3.254;2024-01-27T08:08:55;3.80;84.40
84276;DHT22;74432;51.212;3.254;2024-01-27T08:11:21;3.90;84.30
84276;DHT22;74432;51.212;3.254;2024-01-27T08:13:46;3.90;83.90
84276;DHT22;74432;51.212;3.254;2024-01-27T08:16:12;3.90;84.30
84276;DHT22;74432;51.212;3.254;2024-01-27T08:18:39;3.90;84.20
84276;DHT22;74432;51.212;3.254;2024-01-27T08:21:08;4.00;83.90
84276;DHT22;74432;51.212;3.254;2024-01-27T08:23:34;4.00;84.20
84276;DHT22;74432;51.212;3.254;2024-01-27T08:26:00;4.10;84.20
84276;DHT22;74432;51.212;3.254;2024-01-27T08:28:25;4.20;83.80
84276;DHT22;74432;51.212;3.254;2024-01-27T08:30:51;4.30;83.30
84276;DHT22;74432;51.212;3.254;2024-01-27T08:33:17;4.40;83.60
84276;DHT22;74432;51.212;3.254;2024-01-27T08:35:42;4.30;82.10
84276;DHT22;74432;51.212;3.254;2024-01-27T08:38:08;4.40;82.30
84276;DHT22;74432;51.212;3.254;2024-01-27T08:40:37;4.50;82.10
84276;DHT22;74432;51.212;3.254;2024-01-27T08:43:03;4.50;82.10
84276;DHT22;74432;51.212;3.254;2024-01-27T08:45:29;4.60;82.50
84276;DHT22;74432;51.212;3.254;2024-01-27T08:47:55;4.60;81.90
84276;DHT22;74432;51.212;3.254;2024-01-27T08:50:21;4.60;81.70
84276;DHT22;74432;51.212;3.254;2024-01-27T08:52:46;4.30;82.10
84276;DHT22;74432;51.212;3.254;2024-01-27T08:55:12;4.50;82.70
84276;DHT22;74432;51.212;3.254;2024-01-27T08:57:38;4.40;82.80
84276;DHT22;74432;51.212;3.254;2024-01-27T09:00:04;4.30;83.50
84276;DHT22;74432;51.212;3.254;2024-01-27T09:02:30;4.60;83.30
84276;DHT22;74432;51.212;3.254;2024-01-27T09:04:56;4.60;82.70
84276;DHT22;74432;51.212;3.254;2024-01-27T09:07:23;4.70;83.20
84276;DHT22;74432;51.212;3.254;2024-01-27T09:09:48;4.60;82.90
84276;DHT22;74432;51.212;3.254;2024-01-27T09:12:14;4.70;83.80
84276;DHT22;74432;51.212;3.254;2024-01-27T09:14:41;4.80;83.90
84276;DHT22;74432;51.212;3.254;2024-01-27T09:17:06;5.10;82.80
84276;DHT22;74432;51.212;3.254;2024-01-27T09:19:32;5.20;82.40
84276;DHT22;74432;51.212;3.254;2024-01-27T09:21:58;5.20;82.30
84276;DHT22;74432;51.212;3.254;2024-01-27T09:24:23;5.30;82.50
84276;DHT22;74432;51.212;3.254;2024-01-27T09:26:49;5.50;82.30
84276;DHT22;74432;51.212;3.254;2024-01-27T09:29:15;5.60;81.60
84276;DHT22;74432;51.212;3.254;2024-01-27T09:31:40;5.60;80.90
84276;DHT22;74432;51.212;3.254;2024-01-27T09:34:06;5.40;81.10
84276;DHT22;74432;51.212;3.254;2024-01-27T09:36:32;5.40;81.60
84276;DHT22;74432;51.212;3.254;2024-01-27T09:38:57;5.50;81.80
84276;DHT22;74432;51.212;3.254;2024-01-27T09:41:26;5.50;82.20
84276;DHT22;74432;51.212;3.254;2024-01-27T09:43:55;5.60;81.90
84276;DHT22;74432;51.212;3.254;2024-01-27T09:46:24;5.50;82.50
84276;DHT22;74432;51.212;3.254;2024-01-27T09:48:49;5.60;82.10
84276;DHT22;74432;51.212;3.254;2024-01-27T09:51:15;5.70;82.30
84276;DHT22;74432;51.212;3.254;2024-01-27T09:53:41;5.80;82.10
84276;DHT22;74432;51.212;3.254;2024-01-27T09:56:07;5.70;82.00
84276;DHT22;74432;51.212;3.254;2024-01-27T09:58:34;5.80;82.40
84276;DHT22;74432;51.212;3.254;2024-01-27T10:01:00;6.10;82.20
84276;DHT22;74432;51.212;3.254;2024-01-27T10:03:27;6.20;81.10
84276;DHT22;74432;51.212;3.254;2024-01-27T10:05:54;6.20;80.80
84276;DHT22;74432;51.212;3.254;2024-01-27T10:08:21;6.20;81.10
84276;DHT22;74432;51.212;3.254;2024-01-27T10:10:49;6.20;81.40
84276;DHT22;74432;51.212;3.254;2024-01-27T10:13:18;6.30;81.30
84276;DHT22;74432;51.212;3.254;2024-01-27T10:15:44;6.30;82.10
84276;DHT22;74432;51.212;3.254;2024-01-27T10:18:10;6.20;82.20
84276;DHT22;74432;51.212;3.254;2024-01-27T10:20:39;6.10;82.70
84276;DHT22;74432;51.212;3.254;2024-01-27T10:23:12;6.30;83.20
84276;DHT22;74432;51.212;3.254;2024-01-27T10:25:39;6.40;82.50
84276;DHT22;74432;51.212;3.254;2024-01-27T10:28:09;6.50;82.50
84276;DHT22;74432;51.212;3.254;2024-01-27T10:30:35;6.70;82.10
84276;DHT22;74432;51.212;3.254;2024-01-27T10:33:01;6.90;81.20
84276;DHT22;74432;51.212;3.254;2024-01-27T10:35:28;7.00;80.80
84276;DHT22;74432;51.212;3.254;2024-01-27T10:37:54;7.10;80.30
84276;DHT22;74432;51.212;3.254;2024-01-27T10:40:21;7.00;80.80
84276;DHT22;74432;51.212;3.254;2024-01-27T10:43:04;7.00;81.00
84276;DHT22;74432;51.212;3.254;2024-01-27T10:45:37;7.20;80.50
84276;DHT22;74432;51.212;3.254;2024-01-27T10:48:05;7.00;80.90
84276;DHT22;74432;51.212;3.254;2024-01-27T10:50:40;7.20;80.80
84276;DHT22;74432;51.212;3.254;2024-01-27T10:53:12;7.20;80.90
84276;DHT22;74432;51.212;3.254;2024-01-27T10:55:42;7.30;80.40
84276;DHT22;74432;51.212;3.254;2024-01-27T10:58:10;7.20;80.90
84276;DHT22;74432;51.212;3.254;2024-01-27T11:00:37;7.20;81.30
84276;DHT22;74432;51.212;3.254;2024-01-27T11:03:04;7.40;81.60
84276;DHT22;74432;51.212;3.254;2024-01-27T11:05:34;7.70;80.30
84276;DHT22;74432;51.212;3.254;2024-01-27T11:08:01;7.80;79.10
84276;DHT22;74432;51.212;3.254;2024-01-27T11:10:29;7.60;79.10
84276;DHT22;74432;51.212;3.254;2024-01-27T11:13:02;7.60;79.40
84276;DHT22;74432;51.212;3.254;2024-01-27T11:15:28;7.60;80.20
84276;DHT22;74432;51.212;3.254;2024-01-27T11:17:57;7.60;79.70
84276;DHT22;74432;51.212;3.254;2024-01-27T11:20:25;7.90;80.10
84276;DHT22;74432;51.212;3.254;2024-01-27T11:22:51;8.00;77.90
84276;DHT22;74432;51.212;3.254;2024-01-27T11:25:18;7.90;77.90
84276;DHT22;74432;51.212;3.254;2024-01-27T11:27:45;8.10;78.60
84276;DHT22;74432;51.212;3.254;2024-01-27T11:30:25;8.30;77.30
84276;DHT22;74432;51.212;3.254;2024-01-27T11:32:54;8.30;76.20
84276;DHT22;74432;51.212;3.254;2024-01-27T11:35:20;8.20;76.00
84276;DHT22;74432;51.212;3.254;2024-01-27T11:37:45;8.10;77.60
84276;DHT22;74432;51.212;3.254;2024-01-27T11:40:11;8.30;77.40
84276;DHT22;74432;51.212;3.254;2024-01-27T11:42:37;8.50;76.00
84276;DHT22;74432;51.212;3.254;2024-01-27T11:45:03;8.40;76.20
84276;DHT22;74432;51.212;3.254;2024-01-27T11:47:30;8.50;75.70
84276;DHT22;74432;51.212;3.254;2024-01-27T11:49:56;8.40;76.30
84276;DHT22;74432;51.212;3.254;2024-01-27T11:52:23;8.50;75.70
84276;DHT22;74432;51.212;3.254;2024-01-27T11:54:58;8.50;76.40
84276;DHT22;74432;51.212;3.254;2024-01-27T11:57:25;8.50;76.10
84276;DHT22;74432;51.212;3.254;2024-01-27T11:59:51;8.50;76.60
84276;DHT22;74432;51.212;3.254;2024-01-27T12:02:17;8.70;76.80
84276;DHT22;74432;51.212;3.254;2024-01-27T12:04:43;8.70;77.30
84276;DHT22;74432;51.212;3.254;2024-01-27T12:07:09;8.70;78.10
84276;DHT22;74432;51.212;3.254;2024-01-27T12:09:36;8.70;77.30
84276;DHT22;74432;51.212;3.254;2024-01-27T12:12:03;8.70;78.10
84276;DHT22;74432;51.212;3.254;2024-01-27T12:14:46;8.90;78.30
84276;DHT22;74432;51.212;3.254;2024-01-27T12:17:12;9.10;76.50
84276;DHT22;74432;51.212;3.254;2024-01-27T12:19:39;9.00;77.20
84276;DHT22;74432;51.212;3.254;2024-01-27T12:22:05;9.00;78.10
84276;DHT22;74432;51.212;3.254;2024-01-27T12:24:45;9.10;77.90
84276;DHT22;74432;51.212;3.254;2024-01-27T12:27:11;9.10;77.10
84276;DHT22;74432;51.212;3.254;2024-01-27T12:29:37;9.20;78.30
84276;DHT22;74432;51.212;3.254;2024-01-27T12:32:03;9.40;77.80
84276;DHT22;74432;51.212;3.254;2024-01-27T12:34:29;9.30;77.30
84276;DHT22;74432;51.212;3.254;2024-01-27T12:36:55;9.50;76.90
84276;DHT22;74432;51.212;3.254;2024-01-27T12:39:21;9.80;76.40
84276;DHT22;74432;51.212;3.254;2024-01-27T12:41:47;9.90;73.30
84276;DHT22;74432;51.212;3.254;2024-01-27T12:44:12;9.70;73.60
84276;DHT22;74432;51.212;3.254;2024-01-27T12:46:38;9.60;73.20
84276;DHT22;74432;51.212;3.254;2024-01-27T12:49:04;9.60;74.60
84276;DHT22;74432;51.212;3.254;2024-01-27T12:51:30;9.70;74.00
84276;DHT22;74432;51.212;3.254;2024-01-27T12:53:56;9.70;72.60
84276;DHT22;74432;51.212;3.254;2024-01-27T12:56:22;9.50;73.40
84276;DHT22;74432;51.212;3.254;2024-01-27T12:58:48;9.20;73.10
84276;DHT22;74432;51.212;3.254;2024-01-27T13:01:13;9.20;75.40
84276;DHT22;74432;51.212;3.254;2024-01-27T13:03:39;9.20;74.20
84276;DHT22;74432;51.212;3.254;2024-01-27T13:06:05;8.90;74.80
84276;DHT22;74432;51.212;3.254;2024-01-27T13:08:30;9.00;75.30
84276;DHT22;74432;51.212;3.254;2024-01-27T13:10:56;9.00;75.10
84276;DHT22;74432;51.212;3.254;2024-01-27T13:13:22;9.10;74.70
84276;DHT22;74432;51.212;3.254;2024-01-27T13:15:47;9.00;74.50
84276;DHT22;74432;51.212;3.254;2024-01-27T13:18:13;9.20;75.00
84276;DHT22;74432;51.212;3.254;2024-01-27T13:20:39;9.20;74.00
84276;DHT22;74432;51.212;3.254;2024-01-27T13:23:07;9.20;74.20
84276;DHT22;74432;51.212;3.254;2024-01-27T13:25:33;9.10;74.70
84276;DHT22;74432;51.212;3.254;2024-01-27T13:27:59;9.20;75.20
84276;DHT22;74432;51.212;3.254;2024-01-27T13:30:25;9.30;74.70
84276;DHT22;74432;51.212;3.254;2024-01-27T13:32:50;9.40;73.40
84276;DHT22;74432;51.212;3.254;2024-01-27T13:35:16;9.40;73.20
84276;DHT22;74432;51.212;3.254;2024-01-27T13:37:42;9.30;73.00
84276;DHT22;74432;51.212;3.254;2024-01-27T13:40:08;9.30;74.30
84276;DHT22;74432;51.212;3.254;2024-01-27T13:42:36;9.40;73.90
84276;DHT22;74432;51.212;3.254;2024-01-27T13:45:03;9.40;72.90
84276;DHT22;74432;51.212;3.254;2024-01-27T13:47:29;9.50;72.70
84276;DHT22;74432;51.212;3.254;2024-01-27T13:49:55;9.40;72.50
84276;DHT22;74432;51.212;3.254;2024-01-27T13:52:21;9.40;72.40
84276;DHT22;74432;51.212;3.254;2024-01-27T13:54:46;9.40;72.50
84276;DHT22;74432;51.212;3.254;2024-01-27T13:57:14;9.40;72.30
84276;DHT22;74432;51.212;3.254;2024-01-27T13:59:40;9.40;72.30
84276;DHT22;74432;51.212;3.254;2024-01-27T14:02:05;9.50;72.30
84276;DHT22;74432;51.212;3.254;2024-01-27T14:04:31;9.50;70.30
84276;DHT22;74432;51.212;3.254;2024-01-27T14:06:57;9.30;70.50
84276;DHT22;74432;51.212;3.254;2024-01-27T14:09:23;9.10;71.20
84276;DHT22;74432;51.212;3.254;2024-01-27T14:11:49;9.10;71.80
84276;DHT22;74432;51.212;3.254;2024-01-27T14:14:17;9.20;72.30
84276;DHT22;74432;51.212;3.254;2024-01-27T14:16:44;9.20;71.90
84276;DHT22;74432;51.212;3.254;2024-01-27T14:19:10;9.10;70.60
84276;DHT22;74432;51.212;3.254;2024-01-27T14:21:36;9.20;71.10
84276;DHT22;74432;51.212;3.254;2024-01-27T14:24:02;9.20;69.70
84276;DHT22;74432;51.212;3.254;2024-01-27T14:26:31;9.10;70.30
84276;DHT22;74432;51.212;3.254;2024-01-27T14:28:57;9.00;70.00
84276;DHT22;74432;51.212;3.254;2024-01-27T14:31:22;9.10;71.10
84276;DHT22;74432;51.212;3.254;2024-01-27T14:33:48;9.20;70.50
84276;DHT22;74432;51.212;3.254;2024-01-27T14:36:14;9.20;69.60
84276;DHT22;74432;51.212;3.254;2024-01-27T14:38:40;9.20;69.00
84276;DHT22;74432;51.212;3.254;2024-01-27T14:41:07;9.00;69.10
84276;DHT22;74432;51.212;3.254;2024-01-27T14:43:33;8.90;68.20
84276;DHT22;74432;51.212;3.254;2024-01-27T14:46:00;8.80;68.70
84276;DHT22;74432;51.212;3.254;2024-01-27T14:48:25;8.70;69.60
84276;DHT22;74432;51.212;3.254;2024-01-27T14:50:51;8.70;70.60
84276;DHT22;74432;51.212;3.254;2024-01-27T14:53:24;8.70;71.00
84276;DHT22;74432;51.212;3.254;2024-01-27T14:55:50;8.80;71.40
84276;DHT22;74432;51.212;3.254;2024-01-27T14:58:16;8.90;71.00
84276;DHT22;74432;51.212;3.254;2024-01-27T15:00:42;9.00;70.70
84276;DHT22;74432;51.212;3.254;2024-01-27T15:03:08;9.00;70.70
84276;DHT22;74432;51.212;3.254;2024-01-27T15:05:38;9.00;69.40
84276;DHT22;74432;51.212;3.254;2024-01-27T15:08:06;9.10;70.50
84276;DHT22;74432;51.212;3.254;2024-01-27T15:10:32;9.10;69.40
84276;DHT22;74432;51.212;3.254;2024-01-27T15:12:58;9.30;68.90
84276;DHT22;74432;51.212;3.254;2024-01-27T15:15:32;9.30;67.80
84276;DHT22;74432;51.212;3.254;2024-01-27T15:17:58;9.00;68.20
84276;DHT22;74432;51.212;3.254;2024-01-27T15:20:26;9.00;68.70
84276;DHT22;74432;51.212;3.254;2024-01-27T15:22:53;9.00;67.80
84276;DHT22;74432;51.212;3.254;2024-01-27T15:25:19;9.10;69.10
84276;DHT22;74432;51.212;3.254;2024-01-27T15:27:45;9.00;68.20
84276;DHT22;74432;51.212;3.254;2024-01-27T15:30:12;9.00;68.40
84276;DHT22;74432;51.212;3.254;2024-01-27T15:32:38;9.00;68.60
84276;DHT22;74432;51.212;3.254;2024-01-27T15:35:05;9.00;68.60
84276;DHT22;74432;51.212;3.254;2024-01-27T15:37:31;9.00;69.50
84276;DHT22;74432;51.212;3.254;2024-01-27T15:39:57;9.20;69.40
84276;DHT22;74432;51.212;3.254;2024-01-27T15:42:22;9.20;69.00